sensor_id;sensor_type;location;lat;lon;timestamp;P1;durP1;ratioP1;P2;durP2;ratioP2
18066;SDS011;9158;51.528;7.192;2022-12-07T00:00:29;14.17;;;9.87;;
18066;SDS011;9158;51.528;7.192;2022-12-07T00:01:04;12.35;;;10.73;;
18066;SDS011;9158;51.528;7.192;2022-12-07T00:01:37;12.65;;;10.77;;
18066;SDS011;9158;51.528;7.192;2022-12-07T00:02:10;15.98;;;10.75;;
18066;SDS011;9158;51.528;7.192;2022-12-07T00:02:41;14.17;;;10.50;;
18066;SDS011;9158;51.528;7.192;2022-12-07T00:03:12;12.37;;;10.50;;
18066;SDS011;9158;51.528;7.192;2022-12-07T00:03:44;11.43;;;10.10;;
18066;SDS011;9158;51.528;7.192;2022-12-07T00:04:19;13.98;;;10.10;;
18066;SDS011;9158;51.528;7.192;2022-12-07T00:04:50;14.70;;;10.55;;
18066;SDS011;9158;51.528;7.192;2022-12-07T00:05:20;12.90;;;9.80;;
18066;SDS011;9158;51.528;7.192;2022-12-07T00:05:52;15.98;;;10.15;;
18066;SDS011;9158;51.528;7.192;2022-12-07T00:06:27;12.02;;;9.98;;
18066;SDS011;9158;51.528;7.192;2022-12-07T00:06:58;12.60;;;10.47;;
18066;SDS011;9158;51.528;7.192;2022-12-07T00:07:30;13.02;;;10.65;;
18066;SDS011;9158;51.528;7.192;2022-12-07T00:08:01;12.07;;;9.63;;
18066;SDS011;9158;51.528;7.192;2022-12-07T00:08:32;14.20;;;10.80;;
18066;SDS011;9158;51.528;7.192;2022-12-07T00:09:07;11.27;;;9.27;;
18066;SDS011;9158;51.528;7.192;2022-12-07T00:09:40;15.93;;;10.32;;
18066;SDS011;9158;51.528;7.192;2022-12-07T00:10:12;12.38;;;10.30;;
18066;SDS011;9158;51.528;7.192;2022-12-07T00:10:43;13.77;;;11.20;;
18066;SDS011;9158;51.528;7.192;2022-12-07T00:11:15;14.03;;;10.27;;
18066;SDS011;9158;51.528;7.192;2022-12-07T00:11:48;13.13;;;9.65;;
18066;SDS011;9158;51.528;7.192;2022-12-07T00:12:20;15.00;;;10.57;;
18066;SDS011;9158;51.528;7.192;2022-12-07T00:12:51;13.87;;;9.93;;
18066;SDS011;9158;51.528;7.192;2022-12-07T00:13:23;11.45;;;9.40;;
18066;SDS011;9158;51.528;7.192;2022-12-07T00:13:54;12.43;;;10.20;;
18066;SDS011;9158;51.528;7.192;2022-12-07T00:14:29;12.55;;;10.10;;
18066;SDS011;9158;51.528;7.192;2022-12-07T00:15:01;13.63;;;9.10;;
18066;SDS011;9158;51.528;7.192;2022-12-07T00:15:33;12.00;;;10.10;;
18066;SDS011;9158;51.528;7.192;2022-12-07T00:16:06;14.50;;;9.88;;
18066;SDS011;9158;51.528;7.192;2022-12-07T00:16:38;11.40;;;10.02;;
18066;SDS011;9158;51.528;7.192;2022-12-07T00:17:10;15.65;;;10.75;;
18066;SDS011;9158;51.528;7.192;2022-12-07T00:17:41;11.00;;;9.13;;
18066;SDS011;9158;51.528;7.192;2022-12-07T00:18:12;10.73;;;9.60;;
18066;SDS011;9158;51.528;7.192;2022-12-07T00:18:44;13.32;;;9.80;;
18066;SDS011;9158;51.528;7.192;2022-12-07T00:19:15;13.50;;;9.75;;
18066;SDS011;9158;51.528;7.192;2022-12-07T00:19:46;14.63;;;9.80;;
18066;SDS011;9158;51.528;7.192;2022-12-07T00:20:18;11.77;;;10.27;;
18066;SDS011;9158;51.528;7.192;2022-12-07T00:20:49;17.63;;;10.10;;
18066;SDS011;9158;51.528;7.192;2022-12-07T00:21:21;15.37;;;11.10;;
18066;SDS011;9158;51.528;7.192;2022-12-07T00:21:54;11.80;;;9.63;;
18066;SDS011;9158;51.528;7.192;2022-12-07T00:22:25;16.20;;;9.40;;
18066;SDS011;9158;51.528;7.192;2022-12-07T00:22:56;13.77;;;9.90;;
18066;SDS011;9158;51.528;7.192;2022-12-07T00:23:28;13.35;;;8.75;;
18066;SDS011;9158;51.528;7.192;2022-12-07T00:24:00;14.82;;;8.38;;
18066;SDS011;9158;51.528;7.192;2022-12-07T00:24:31;12.45;;;9.90;;
18066;SDS011;9158;51.528;7.192;2022-12-07T00:25:03;11.98;;;9.63;;
18066;SDS011;9158;51.528;7.192;2022-12-07T00:25:35;11.27;;;9.23;;
18066;SDS011;9158;51.528;7.192;2022-12-07T00:26:06;11.27;;;8.33;;
18066;SDS011;9158;51.528;7.192;2022-12-07T00:26:39;13.88;;;9.82;;
18066;SDS011;9158;51.528;7.192;2022-12-07T00:27:12;11.15;;;8.70;;
18066;SDS011;9158;51.528;7.192;2022-12-07T00:27:42;13.50;;;9.80;;
18066;SDS011;9158;51.528;7.192;2022-12-07T00:28:14;13.50;;;9.15;;
18066;SDS011;9158;51.528;7.192;2022-12-07T00:28:45;10.30;;;8.30;;
18066;SDS011;9158;51.528;7.192;2022-12-07T00:29:17;11.85;;;9.15;;
18066;SDS011;9158;51.528;7.192;2022-12-07T00:29:51;12.52;;;10.02;;
18066;SDS011;9158;51.528;7.192;2022-12-07T00:30:23;13.25;;;9.75;;
18066;SDS011;9158;51.528;7.192;2022-12-07T00:30:59;15.20;;;9.38;;
18066;SDS011;9158;51.528;7.192;2022-12-07T00:31:31;9.40;;;8.48;;
18066;SDS011;9158;51.528;7.192;2022-12-07T00:32:05;16.80;;;8.70;;
18066;SDS011;9158;51.528;7.192;2022-12-07T00:32:36;11.87;;;9.10;;
18066;SDS011;9158;51.528;7.192;2022-12-07T00:33:07;13.07;;;9.30;;
18066;SDS011;9158;51.528;7.192;2022-12-07T00:33:39;11.98;;;9.15;;
18066;SDS011;9158;51.528;7.192;2022-12-07T00:34:11;12.17;;;9.20;;
18066;SDS011;9158;51.528;7.192;2022-12-07T00:34:44;10.57;;;9.50;;
18066;SDS011;9158;51.528;7.192;2022-12-07T00:35:16;11.02;;;8.93;;
18066;SDS011;9158;51.528;7.192;2022-12-07T00:35:46;14.93;;;9.67;;
18066;SDS011;9158;51.528;7.192;2022-12-07T00:36:24;12.95;;;8.60;;
18066;SDS011;9158;51.528;7.192;2022-12-07T00:36:56;14.60;;;9.68;;
18066;SDS011;9158;51.528;7.192;2022-12-07T00:37:27;11.47;;;8.77;;
18066;SDS011;9158;51.528;7.192;2022-12-07T00:37:58;9.67;;;8.50;;
18066;SDS011;9158;51.528;7.192;2022-12-07T00:38:31;11.48;;;9.00;;
18066;SDS011;9158;51.528;7.192;2022-12-07T00:39:02;10.63;;;8.93;;
18066;SDS011;9158;51.528;7.192;2022-12-07T00:39:33;10.88;;;8.90;;
18066;SDS011;9158;51.528;7.192;2022-12-07T00:40:06;14.90;;;8.88;;
18066;SDS011;9158;51.528;7.192;2022-12-07T00:40:37;12.38;;;9.52;;
18066;SDS011;9158;51.528;7.192;2022-12-07T00:41:09;11.80;;;8.77;;
18066;SDS011;9158;51.528;7.192;2022-12-07T00:41:43;11.88;;;9.10;;
18066;SDS011;9158;51.528;7.192;2022-12-07T00:42:14;9.68;;;8.70;;
18066;SDS011;9158;51.528;7.192;2022-12-07T00:42:46;10.93;;;8.52;;
18066;SDS011;9158;51.528;7.192;2022-12-07T00:43:16;10.80;;;9.00;;
18066;SDS011;9158;51.528;7.192;2022-12-07T00:43:48;16.97;;;10.07;;
18066;SDS011;9158;51.528;7.192;2022-12-07T00:44:20;10.75;;;8.60;;
18066;SDS011;9158;51.528;7.192;2022-12-07T00:44:53;13.53;;;10.10;;
18066;SDS011;9158;51.528;7.192;2022-12-07T00:45:24;11.15;;;9.48;;
18066;SDS011;9158;51.528;7.192;2022-12-07T00:45:56;13.13;;;9.60;;
18066;SDS011;9158;51.528;7.192;2022-12-07T00:46:27;12.35;;;10.13;;
18066;SDS011;9158;51.528;7.192;2022-12-07T00:46:59;13.00;;;9.93;;
18066;SDS011;9158;51.528;7.192;2022-12-07T00:47:30;12.60;;;9.93;;
18066;SDS011;9158;51.528;7.192;2022-12-07T00:48:00;12.00;;;9.00;;
18066;SDS011;9158;51.528;7.192;2022-12-07T00:48:33;13.70;;;9.20;;
18066;SDS011;9158;51.528;7.192;2022-12-07T00:49:04;15.48;;;10.05;;
18066;SDS011;9158;51.528;7.192;2022-12-07T00:49:35;11.07;;;9.50;;
18066;SDS011;9158;51.528;7.192;2022-12-07T00:50:07;13.20;;;8.30;;
18066;SDS011;9158;51.528;7.192;2022-12-07T00:50:38;15.02;;;10.10;;
18066;SDS011;9158;51.528;7.192;2022-12-07T00:51:09;13.23;;;9.53;;
18066;SDS011;9158;51.528;7.192;2022-12-07T00:51:41;11.00;;;8.90;;
18066;SDS011;9158;51.528;7.192;2022-12-07T00:52:13;11.15;;;9.95;;
18066;SDS011;9158;51.528;7.192;2022-12-07T00:52:44;14.30;;;9.00;;
18066;SDS011;9158;51.528;7.192;2022-12-07T00:53:15;9.80;;;8.57;;
18066;SDS011;9158;51.528;7.192;2022-12-07T00:53:47;15.75;;;10.15;;
18066;SDS011;9158;51.528;7.192;2022-12-07T00:54:18;12.20;;;9.23;;
18066;SDS011;9158;51.528;7.192;2022-12-07T00:54:50;12.25;;;10.00;;
18066;SDS011;9158;51.528;7.192;2022-12-07T00:55:21;11.50;;;9.25;;
18066;SDS011;9158;51.528;7.192;2022-12-07T00:55:52;11.83;;;9.53;;
18066;SDS011;9158;51.528;7.192;2022-12-07T00:56:26;13.63;;;10.13;;
18066;SDS011;9158;51.528;7.192;2022-12-07T00:56:58;12.13;;;10.23;;
18066;SDS011;9158;51.528;7.192;2022-12-07T00:57:30;14.95;;;10.98;;
18066;SDS011;9158;51.528;7.192;2022-12-07T00:58:01;10.20;;;9.10;;
18066;SDS011;9158;51.528;7.192;2022-12-07T00:58:32;12.13;;;10.70;;
18066;SDS011;9158;51.528;7.192;2022-12-07T00:59:04;13.02;;;10.35;;
18066;SDS011;9158;51.528;7.192;2022-12-07T00:59:35;14.38;;;10.27;;
18066;SDS011;9158;51.528;7.192;2022-12-07T01:00:08;14.07;;;10.30;;
18066;SDS011;9158;51.528;7.192;2022-12-07T01:00:41;13.05;;;10.00;;
18066;SDS011;9158;51.528;7.192;2022-12-07T01:01:12;15.25;;;10.77;;
18066;SDS011;9158;51.528;7.192;2022-12-07T01:01:43;13.27;;;10.63;;
18066;SDS011;9158;51.528;7.192;2022-12-07T01:02:15;12.77;;;9.77;;
18066;SDS011;9158;51.528;7.192;2022-12-07T01:02:46;12.23;;;11.02;;
18066;SDS011;9158;51.528;7.192;2022-12-07T01:03:17;14.67;;;11.30;;
18066;SDS011;9158;51.528;7.192;2022-12-07T01:03:49;16.45;;;10.48;;
18066;SDS011;9158;51.528;7.192;2022-12-07T01:04:20;13.90;;;10.30;;
18066;SDS011;9158;51.528;7.192;2022-12-07T01:04:51;12.60;;;9.93;;
18066;SDS011;9158;51.528;7.192;2022-12-07T01:05:23;12.23;;;9.35;;
18066;SDS011;9158;51.528;7.192;2022-12-07T01:05:54;11.63;;;10.43;;
18066;SDS011;9158;51.528;7.192;2022-12-07T01:06:26;15.48;;;10.85;;
18066;SDS011;9158;51.528;7.192;2022-12-07T01:06:59;12.75;;;10.65;;
18066;SDS011;9158;51.528;7.192;2022-12-07T01:07:30;13.53;;;11.00;;
18066;SDS011;9158;51.528;7.192;2022-12-07T01:08:01;15.13;;;11.27;;
18066;SDS011;9158;51.528;7.192;2022-12-07T01:08:33;13.80;;;10.15;;
18066;SDS011;9158;51.528;7.192;2022-12-07T01:09:04;14.35;;;11.57;;
18066;SDS011;9158;51.528;7.192;2022-12-07T01:09:36;15.95;;;11.25;;
18066;SDS011;9158;51.528;7.192;2022-12-07T01:10:08;15.82;;;10.80;;
18066;SDS011;9158;51.528;7.192;2022-12-07T01:10:39;12.43;;;10.70;;
18066;SDS011;9158;51.528;7.192;2022-12-07T01:11:11;11.18;;;9.20;;
18066;SDS011;9158;51.528;7.192;2022-12-07T01:11:45;16.00;;;11.25;;
18066;SDS011;9158;51.528;7.192;2022-12-07T01:12:16;15.50;;;9.87;;
18066;SDS011;9158;51.528;7.192;2022-12-07T01:12:46;15.10;;;11.67;;
18066;SDS011;9158;51.528;7.192;2022-12-07T01:13:18;14.70;;;11.25;;
18066;SDS011;9158;51.528;7.192;2022-12-07T01:13:50;16.37;;;11.30;;
18066;SDS011;9158;51.528;7.192;2022-12-07T01:14:21;17.55;;;11.88;;
18066;SDS011;9158;51.528;7.192;2022-12-07T01:14:53;14.77;;;12.00;;
18066;SDS011;9158;51.528;7.192;2022-12-07T01:15:25;15.40;;;11.77;;
18066;SDS011;9158;51.528;7.192;2022-12-07T01:15:57;15.95;;;12.40;;
18066;SDS011;9158;51.528;7.192;2022-12-07T01:16:30;18.95;;;10.88;;
18066;SDS011;9158;51.528;7.192;2022-12-07T01:17:02;15.73;;;11.27;;
18066;SDS011;9158;51.528;7.192;2022-12-07T01:17:34;14.18;;;11.15;;
18066;SDS011;9158;51.528;7.192;2022-12-07T01:18:05;15.48;;;11.90;;
18066;SDS011;9158;51.528;7.192;2022-12-07T01:18:36;18.47;;;11.67;;
18066;SDS011;9158;51.528;7.192;2022-12-07T01:19:08;13.98;;;11.32;;
18066;SDS011;9158;51.528;7.192;2022-12-07T01:19:39;15.00;;;10.47;;
18066;SDS011;9158;51.528;7.192;2022-12-07T01:20:10;13.30;;;11.90;;
18066;SDS011;9158;51.528;7.192;2022-12-07T01:20:43;13.63;;;11.43;;
18066;SDS011;9158;51.528;7.192;2022-12-07T01:21:14;14.10;;;11.60;;
18066;SDS011;9158;51.528;7.192;2022-12-07T01:21:47;17.00;;;11.82;;
18066;SDS011;9158;51.528;7.192;2022-12-07T01:22:19;15.13;;;11.02;;
18066;SDS011;9158;51.528;7.192;2022-12-07T01:22:50;16.53;;;11.20;;
18066;SDS011;9158;51.528;7.192;2022-12-07T01:23:20;14.77;;;11.50;;
18066;SDS011;9158;51.528;7.192;2022-12-07T01:23:52;16.40;;;12.32;;
18066;SDS011;9158;51.528;7.192;2022-12-07T01:24:23;13.15;;;10.95;;
18066;SDS011;9158;51.528;7.192;2022-12-07T01:24:54;15.53;;;11.10;;
18066;SDS011;9158;51.528;7.192;2022-12-07T01:25:26;15.40;;;12.02;;
18066;SDS011;9158;51.528;7.192;2022-12-07T01:25:57;14.83;;;12.07;;
18066;SDS011;9158;51.528;7.192;2022-12-07T01:26:29;19.75;;;12.40;;
18066;SDS011;9158;51.528;7.192;2022-12-07T01:27:01;15.68;;;12.35;;
18066;SDS011;9158;51.528;7.192;2022-12-07T01:27:32;14.33;;;12.10;;
18066;SDS011;9158;51.528;7.192;2022-12-07T01:28:03;16.48;;;12.50;;
18066;SDS011;9158;51.528;7.192;2022-12-07T01:28:35;16.05;;;13.00;;
18066;SDS011;9158;51.528;7.192;2022-12-07T01:29:06;16.13;;;12.53;;
18066;SDS011;9158;51.528;7.192;2022-12-07T01:29:37;16.10;;;12.57;;
18066;SDS011;9158;51.528;7.192;2022-12-07T01:30:09;15.20;;;12.10;;
18066;SDS011;9158;51.528;7.192;2022-12-07T01:30:43;17.77;;;12.60;;
18066;SDS011;9158;51.528;7.192;2022-12-07T01:31:14;14.68;;;12.45;;
18066;SDS011;9158;51.528;7.192;2022-12-07T01:31:48;18.60;;;14.20;;
18066;SDS011;9158;51.528;7.192;2022-12-07T01:32:19;15.63;;;12.27;;
18066;SDS011;9158;51.528;7.192;2022-12-07T01:32:50;15.07;;;11.85;;
18066;SDS011;9158;51.528;7.192;2022-12-07T01:33:21;14.43;;;11.80;;
18066;SDS011;9158;51.528;7.192;2022-12-07T01:33:54;17.48;;;12.93;;
18066;SDS011;9158;51.528;7.192;2022-12-07T01:34:26;13.88;;;11.43;;
18066;SDS011;9158;51.528;7.192;2022-12-07T01:34:56;18.80;;;13.47;;
18066;SDS011;9158;51.528;7.192;2022-12-07T01:35:28;22.17;;;12.20;;
18066;SDS011;9158;51.528;7.192;2022-12-07T01:36:03;17.25;;;13.20;;
18066;SDS011;9158;51.528;7.192;2022-12-07T01:36:35;15.45;;;12.75;;
18066;SDS011;9158;51.528;7.192;2022-12-07T01:37:07;15.55;;;11.65;;
18066;SDS011;9158;51.528;7.192;2022-12-07T01:37:38;14.55;;;11.85;;
18066;SDS011;9158;51.528;7.192;2022-12-07T01:38:09;17.17;;;13.02;;
18066;SDS011;9158;51.528;7.192;2022-12-07T01:38:40;15.50;;;13.07;;
18066;SDS011;9158;51.528;7.192;2022-12-07T01:39:12;14.82;;;12.50;;
18066;SDS011;9158;51.528;7.192;2022-12-07T01:39:43;18.97;;;13.67;;
18066;SDS011;9158;51.528;7.192;2022-12-07T01:40:14;15.80;;;11.60;;
18066;SDS011;9158;51.528;7.192;2022-12-07T01:40:52;18.40;;;13.60;;
18066;SDS011;9158;51.528;7.192;2022-12-07T01:41:25;17.30;;;11.95;;
18066;SDS011;9158;51.528;7.192;2022-12-07T01:41:57;17.88;;;13.18;;
18066;SDS011;9158;51.528;7.192;2022-12-07T01:42:29;16.50;;;12.63;;
18066;SDS011;9158;51.528;7.192;2022-12-07T01:42:59;17.07;;;13.30;;
18066;SDS011;9158;51.528;7.192;2022-12-07T01:43:31;14.47;;;11.53;;
18066;SDS011;9158;51.528;7.192;2022-12-07T01:44:07;15.68;;;12.13;;
18066;SDS011;9158;51.528;7.192;2022-12-07T01:45:53;14.00;;;10.55;;
18066;SDS011;9158;51.528;7.192;2022-12-07T01:46:26;16.45;;;11.88;;
18066;SDS011;9158;51.528;7.192;2022-12-07T01:46:57;14.73;;;11.32;;
18066;SDS011;9158;51.528;7.192;2022-12-07T01:47:30;13.27;;;11.57;;
18066;SDS011;9158;51.528;7.192;2022-12-07T01:48:02;16.85;;;12.50;;
18066;SDS011;9158;51.528;7.192;2022-12-07T01:48:35;15.13;;;13.40;;
18066;SDS011;9158;51.528;7.192;2022-12-07T01:49:10;13.48;;;10.98;;
18066;SDS011;9158;51.528;7.192;2022-12-07T01:49:47;13.13;;;11.48;;
18066;SDS011;9158;51.528;7.192;2022-12-07T01:50:19;15.57;;;12.10;;
18066;SDS011;9158;51.528;7.192;2022-12-07T01:50:51;17.20;;;13.85;;
18066;SDS011;9158;51.528;7.192;2022-12-07T01:51:26;14.40;;;11.75;;
18066;SDS011;9158;51.528;7.192;2022-12-07T01:52:01;13.50;;;11.93;;
18066;SDS011;9158;51.528;7.192;2022-12-07T01:52:38;15.70;;;12.18;;
18066;SDS011;9158;51.528;7.192;2022-12-07T01:53:12;15.55;;;11.35;;
18066;SDS011;9158;51.528;7.192;2022-12-07T01:53:44;18.17;;;12.93;;
18066;SDS011;9158;51.528;7.192;2022-12-07T01:54:16;14.00;;;10.95;;
18066;SDS011;9158;51.528;7.192;2022-12-07T01:54:49;15.70;;;11.80;;
18066;SDS011;9158;51.528;7.192;2022-12-07T01:55:24;15.23;;;11.40;;
18066;SDS011;9158;51.528;7.192;2022-12-07T01:55:56;14.93;;;11.25;;
18066;SDS011;9158;51.528;7.192;2022-12-07T01:56:30;14.68;;;11.75;;
18066;SDS011;9158;51.528;7.192;2022-12-07T01:57:02;14.98;;;12.02;;
18066;SDS011;9158;51.528;7.192;2022-12-07T01:57:36;13.18;;;11.30;;
18066;SDS011;9158;51.528;7.192;2022-12-07T01:58:11;16.58;;;11.55;;
18066;SDS011;9158;51.528;7.192;2022-12-07T01:58:43;18.83;;;13.00;;
18066;SDS011;9158;51.528;7.192;2022-12-07T01:59:16;16.65;;;13.25;;
18066;SDS011;9158;51.528;7.192;2022-12-07T01:59:50;16.58;;;11.57;;
18066;SDS011;9158;51.528;7.192;2022-12-07T02:00:23;14.05;;;11.45;;
18066;SDS011;9158;51.528;7.192;2022-12-07T02:00:55;15.07;;;11.98;;
18066;SDS011;9158;51.528;7.192;2022-12-07T02:01:26;16.52;;;11.93;;
18066;SDS011;9158;51.528;7.192;2022-12-07T02:01:59;15.82;;;9.57;;
18066;SDS011;9158;51.528;7.192;2022-12-07T02:02:35;15.10;;;11.88;;
18066;SDS011;9158;51.528;7.192;2022-12-07T02:03:09;14.75;;;11.13;;
18066;SDS011;9158;51.528;7.192;2022-12-07T02:03:45;15.32;;;12.43;;
18066;SDS011;9158;51.528;7.192;2022-12-07T02:04:17;13.13;;;10.80;;
18066;SDS011;9158;51.528;7.192;2022-12-07T02:04:49;15.23;;;13.15;;
18066;SDS011;9158;51.528;7.192;2022-12-07T02:05:24;13.65;;;11.50;;
18066;SDS011;9158;51.528;7.192;2022-12-07T02:05:55;17.20;;;12.13;;
18066;SDS011;9158;51.528;7.192;2022-12-07T02:06:29;17.13;;;12.55;;
18066;SDS011;9158;51.528;7.192;2022-12-07T02:07:01;13.77;;;11.50;;
18066;SDS011;9158;51.528;7.192;2022-12-07T02:07:34;14.55;;;11.90;;
18066;SDS011;9158;51.528;7.192;2022-12-07T02:08:07;16.27;;;12.50;;
18066;SDS011;9158;51.528;7.192;2022-12-07T02:08:39;19.25;;;12.30;;
18066;SDS011;9158;51.528;7.192;2022-12-07T02:09:11;18.23;;;13.30;;
18066;SDS011;9158;51.528;7.192;2022-12-07T02:09:42;16.48;;;12.35;;
18066;SDS011;9158;51.528;7.192;2022-12-07T02:10:15;13.70;;;11.45;;
18066;SDS011;9158;51.528;7.192;2022-12-07T02:10:47;18.38;;;11.70;;
18066;SDS011;9158;51.528;7.192;2022-12-07T02:11:18;20.65;;;12.45;;
18066;SDS011;9158;51.528;7.192;2022-12-07T02:11:50;16.52;;;12.32;;
18066;SDS011;9158;51.528;7.192;2022-12-07T02:12:22;15.48;;;11.80;;
18066;SDS011;9158;51.528;7.192;2022-12-07T02:12:56;15.45;;;12.88;;
18066;SDS011;9158;51.528;7.192;2022-12-07T02:13:29;16.80;;;12.02;;
18066;SDS011;9158;51.528;7.192;2022-12-07T02:14:02;17.67;;;12.65;;
18066;SDS011;9158;51.528;7.192;2022-12-07T02:14:34;17.75;;;12.82;;
18066;SDS011;9158;51.528;7.192;2022-12-07T02:15:06;15.70;;;12.25;;
18066;SDS011;9158;51.528;7.192;2022-12-07T02:15:44;15.30;;;11.63;;
18066;SDS011;9158;51.528;7.192;2022-12-07T02:16:31;17.52;;;12.07;;
18066;SDS011;9158;51.528;7.192;2022-12-07T02:17:10;16.90;;;12.65;;
18066;SDS011;9158;51.528;7.192;2022-12-07T02:17:49;15.30;;;12.15;;
18066;SDS011;9158;51.528;7.192;2022-12-07T02:18:30;12.32;;;10.60;;
18066;SDS011;9158;51.528;7.192;2022-12-07T02:19:24;15.05;;;10.98;;
18066;SDS011;9158;51.528;7.192;2022-12-07T02:20:11;14.52;;;11.20;;
18066;SDS011;9158;51.528;7.192;2022-12-07T02:20:58;16.15;;;12.52;;
18066;SDS011;9158;51.528;7.192;2022-12-07T02:21:38;17.08;;;12.52;;
18066;SDS011;9158;51.528;7.192;2022-12-07T02:22:18;16.58;;;12.18;;
18066;SDS011;9158;51.528;7.192;2022-12-07T02:23:29;15.48;;;12.52;;
18066;SDS011;9158;51.528;7.192;2022-12-07T02:24:19;19.08;;;12.50;;
18066;SDS011;9158;51.528;7.192;2022-12-07T02:25:09;14.60;;;11.20;;
18066;SDS011;9158;51.528;7.192;2022-12-07T02:25:57;18.17;;;12.70;;
18066;SDS011;9158;51.528;7.192;2022-12-07T02:27:01;15.05;;;12.43;;
18066;SDS011;9158;51.528;7.192;2022-12-07T02:27:49;16.45;;;11.52;;
18066;SDS011;9158;51.528;7.192;2022-12-07T02:28:27;19.15;;;12.40;;
18066;SDS011;9158;51.528;7.192;2022-12-07T02:29:10;22.80;;;12.40;;
18066;SDS011;9158;51.528;7.192;2022-12-07T02:29:46;17.10;;;12.70;;
18066;SDS011;9158;51.528;7.192;2022-12-07T02:30:20;16.73;;;12.40;;
18066;SDS011;9158;51.528;7.192;2022-12-07T02:30:54;17.45;;;13.80;;
18066;SDS011;9158;51.528;7.192;2022-12-07T02:31:31;16.92;;;13.23;;
18066;SDS011;9158;51.528;7.192;2022-12-07T02:32:03;17.05;;;12.27;;
18066;SDS011;9158;51.528;7.192;2022-12-07T02:32:43;16.95;;;13.25;;
18066;SDS011;9158;51.528;7.192;2022-12-07T02:33:20;17.65;;;12.98;;
18066;SDS011;9158;51.528;7.192;2022-12-07T02:34:02;16.60;;;13.07;;
18066;SDS011;9158;51.528;7.192;2022-12-07T02:34:42;20.70;;;13.55;;
18066;SDS011;9158;51.528;7.192;2022-12-07T02:35:18;20.95;;;13.63;;
18066;SDS011;9158;51.528;7.192;2022-12-07T02:35:54;17.90;;;12.68;;
18066;SDS011;9158;51.528;7.192;2022-12-07T02:36:30;14.95;;;12.48;;
18066;SDS011;9158;51.528;7.192;2022-12-07T02:37:08;15.50;;;11.85;;
18066;SDS011;9158;51.528;7.192;2022-12-07T02:37:47;14.63;;;11.50;;
18066;SDS011;9158;51.528;7.192;2022-12-07T02:38:26;16.75;;;12.30;;
18066;SDS011;9158;51.528;7.192;2022-12-07T02:39:02;17.23;;;12.20;;
18066;SDS011;9158;51.528;7.192;2022-12-07T02:39:40;19.88;;;13.00;;
18066;SDS011;9158;51.528;7.192;2022-12-07T02:40:22;18.10;;;11.43;;
18066;SDS011;9158;51.528;7.192;2022-12-07T02:41:00;21.73;;;12.10;;
18066;SDS011;9158;51.528;7.192;2022-12-07T02:41:36;15.10;;;10.75;;
18066;SDS011;9158;51.528;7.192;2022-12-07T02:42:13;18.02;;;12.10;;
18066;SDS011;9158;51.528;7.192;2022-12-07T02:42:49;17.17;;;12.50;;
18066;SDS011;9158;51.528;7.192;2022-12-07T02:43:24;16.80;;;11.88;;
18066;SDS011;9158;51.528;7.192;2022-12-07T02:43:58;15.30;;;11.63;;
18066;SDS011;9158;51.528;7.192;2022-12-07T02:44:34;14.55;;;12.45;;
18066;SDS011;9158;51.528;7.192;2022-12-07T02:45:06;17.58;;;12.05;;
18066;SDS011;9158;51.528;7.192;2022-12-07T02:45:39;16.75;;;12.40;;
18066;SDS011;9158;51.528;7.192;2022-12-07T02:46:13;14.95;;;11.30;;
18066;SDS011;9158;51.528;7.192;2022-12-07T02:46:48;16.73;;;12.48;;
18066;SDS011;9158;51.528;7.192;2022-12-07T02:47:24;15.60;;;12.20;;
18066;SDS011;9158;51.528;7.192;2022-12-07T02:48:35;17.08;;;11.57;;
18066;SDS011;9158;51.528;7.192;2022-12-07T02:49:10;18.13;;;12.70;;
18066;SDS011;9158;51.528;7.192;2022-12-07T02:49:41;15.60;;;12.63;;
18066;SDS011;9158;51.528;7.192;2022-12-07T02:50:12;15.85;;;12.05;;
18066;SDS011;9158;51.528;7.192;2022-12-07T02:50:45;14.65;;;12.60;;
18066;SDS011;9158;51.528;7.192;2022-12-07T02:51:18;13.77;;;11.48;;
18066;SDS011;9158;51.528;7.192;2022-12-07T02:51:49;18.00;;;11.88;;
18066;SDS011;9158;51.528;7.192;2022-12-07T02:52:23;15.32;;;11.02;;
18066;SDS011;9158;51.528;7.192;2022-12-07T02:52:54;16.43;;;11.90;;
18066;SDS011;9158;51.528;7.192;2022-12-07T02:53:29;17.42;;;12.70;;
18066;SDS011;9158;51.528;7.192;2022-12-07T02:54:02;15.40;;;12.77;;
18066;SDS011;9158;51.528;7.192;2022-12-07T02:54:39;18.10;;;11.38;;
18066;SDS011;9158;51.528;7.192;2022-12-07T02:55:10;16.13;;;11.35;;
18066;SDS011;9158;51.528;7.192;2022-12-07T02:55:43;14.85;;;11.00;;
18066;SDS011;9158;51.528;7.192;2022-12-07T02:56:16;14.63;;;11.15;;
18066;SDS011;9158;51.528;7.192;2022-12-07T02:57:00;13.93;;;11.80;;
18066;SDS011;9158;51.528;7.192;2022-12-07T02:57:42;14.43;;;11.65;;
18066;SDS011;9158;51.528;7.192;2022-12-07T02:58:23;16.00;;;10.45;;
18066;SDS011;9158;51.528;7.192;2022-12-07T02:59:06;22.50;;;13.55;;
18066;SDS011;9158;51.528;7.192;2022-12-07T02:59:49;14.88;;;11.38;;
18066;SDS011;9158;51.528;7.192;2022-12-07T03:00:31;20.25;;;11.23;;
18066;SDS011;9158;51.528;7.192;2022-12-07T03:01:15;15.50;;;11.75;;
18066;SDS011;9158;51.528;7.192;2022-12-07T03:01:55;12.23;;;10.13;;
18066;SDS011;9158;51.528;7.192;2022-12-07T03:02:39;14.35;;;11.20;;
18066;SDS011;9158;51.528;7.192;2022-12-07T03:03:20;17.35;;;11.45;;
18066;SDS011;9158;51.528;7.192;2022-12-07T03:03:57;14.82;;;11.43;;
18066;SDS011;9158;51.528;7.192;2022-12-07T03:04:42;19.13;;;11.40;;
18066;SDS011;9158;51.528;7.192;2022-12-07T03:05:26;20.80;;;12.38;;
18066;SDS011;9158;51.528;7.192;2022-12-07T03:06:13;14.18;;;10.57;;
18066;SDS011;9158;51.528;7.192;2022-12-07T03:06:51;16.23;;;11.57;;
18066;SDS011;9158;51.528;7.192;2022-12-07T03:07:29;15.55;;;11.95;;
18066;SDS011;9158;51.528;7.192;2022-12-07T03:08:11;15.98;;;11.18;;
18066;SDS011;9158;51.528;7.192;2022-12-07T03:08:48;19.40;;;12.90;;
18066;SDS011;9158;51.528;7.192;2022-12-07T03:09:26;20.75;;;12.70;;
18066;SDS011;9158;51.528;7.192;2022-12-07T03:10:03;14.05;;;11.68;;
18066;SDS011;9158;51.528;7.192;2022-12-07T03:10:40;13.95;;;11.35;;
18066;SDS011;9158;51.528;7.192;2022-12-07T03:11:21;16.77;;;12.32;;
18066;SDS011;9158;51.528;7.192;2022-12-07T03:11:58;18.27;;;12.85;;
18066;SDS011;9158;51.528;7.192;2022-12-07T03:12:36;17.88;;;12.43;;
18066;SDS011;9158;51.528;7.192;2022-12-07T03:13:16;18.60;;;13.00;;
18066;SDS011;9158;51.528;7.192;2022-12-07T03:13:55;15.60;;;12.45;;
18066;SDS011;9158;51.528;7.192;2022-12-07T03:14:34;16.40;;;12.48;;
18066;SDS011;9158;51.528;7.192;2022-12-07T03:15:13;23.27;;;12.98;;
18066;SDS011;9158;51.528;7.192;2022-12-07T03:15:49;16.73;;;13.27;;
18066;SDS011;9158;51.528;7.192;2022-12-07T03:16:28;16.20;;;12.00;;
18066;SDS011;9158;51.528;7.192;2022-12-07T03:17:05;20.80;;;11.32;;
18066;SDS011;9158;51.528;7.192;2022-12-07T03:17:42;17.00;;;12.20;;
18066;SDS011;9158;51.528;7.192;2022-12-07T03:18:17;17.35;;;11.90;;
18066;SDS011;9158;51.528;7.192;2022-12-07T03:18:53;18.30;;;12.55;;
18066;SDS011;9158;51.528;7.192;2022-12-07T03:19:27;14.52;;;11.55;;
18066;SDS011;9158;51.528;7.192;2022-12-07T03:20:02;18.83;;;13.60;;
18066;SDS011;9158;51.528;7.192;2022-12-07T03:20:36;20.80;;;12.90;;
18066;SDS011;9158;51.528;7.192;2022-12-07T03:21:11;17.90;;;11.52;;
18066;SDS011;9158;51.528;7.192;2022-12-07T03:21:46;14.30;;;12.02;;
18066;SDS011;9158;51.528;7.192;2022-12-07T03:22:21;17.02;;;11.43;;
18066;SDS011;9158;51.528;7.192;2022-12-07T03:22:55;22.55;;;14.05;;
18066;SDS011;9158;51.528;7.192;2022-12-07T03:23:27;19.77;;;13.50;;
18066;SDS011;9158;51.528;7.192;2022-12-07T03:24:02;21.85;;;15.85;;
18066;SDS011;9158;51.528;7.192;2022-12-07T03:24:36;18.90;;;13.00;;
18066;SDS011;9158;51.528;7.192;2022-12-07T03:25:10;16.95;;;12.02;;